createdAt,value
2022-08-07T00:00:28.418Z,23.76
2022-08-07T00:03:09.130Z,23.71
2022-08-07T00:05:38.390Z,23.68
2022-08-07T00:08:07.877Z,23.63
2022-08-07T00:10:48.162Z,23.58
2022-08-07T00:13:26.819Z,23.51
2022-08-07T00:15:55.964Z,23.45
2022-08-07T00:18:27.961Z,23.37
2022-08-07T00:21:01.391Z,23.31
2022-08-07T00:23:32.379Z,23.25
2022-08-07T00:26:13.093Z,23.18
2022-08-07T00:28:55.745Z,23.10
2022-08-07T00:31:38.446Z,23.04
2022-08-07T00:34:10.739Z,22.99
2022-08-07T00:36:43.185Z,22.94
2022-08-07T00:39:16.674Z,22.90
2022-08-07T00:42:02.546Z,22.83
2022-08-07T00:44:34.993Z,22.76
2022-08-07T00:47:15.927Z,22.70
2022-08-07T00:50:19.572Z,22.64
2022-08-07T00:52:47.503Z,22.57
2022-08-07T00:55:17.494Z,22.55
2022-08-07T00:57:56.032Z,22.53
2022-08-07T01:00:25.238Z,22.50
2022-08-07T01:02:54.281Z,22.46
2022-08-07T01:05:24.515Z,22.42
2022-08-07T01:07:53.152Z,22.41
2022-08-07T01:10:23.989Z,22.41
2022-08-07T01:12:54.666Z,22.39
2022-08-07T01:15:36.112Z,22.38
2022-08-07T01:18:16.812Z,22.35
2022-08-07T01:20:59.604Z,22.32
2022-08-07T01:23:37.949Z,22.30
2022-08-07T01:26:12.060Z,22.27
2022-08-07T01:28:46.151Z,22.24
2022-08-07T01:31:20.140Z,22.21
2022-08-07T01:33:55.605Z,22.17
2022-08-07T01:36:33.934Z,22.14
2022-08-07T01:39:10.689Z,22.10
2022-08-07T01:42:07.493Z,22.07
2022-08-07T01:44:35.497Z,22.03
2022-08-07T01:48:16.386Z,22.00
2022-08-07T01:49:53.598Z,21.97
2022-08-07T01:52:26.661Z,21.95
2022-08-07T01:55:00.341Z,21.91
2022-08-07T01:58:05.573Z,21.87
2022-08-07T02:00:31.306Z,21.81
2022-08-07T02:03:18.174Z,21.76
2022-08-07T02:06:08.866Z,21.71
2022-08-07T02:08:54.604Z,21.65
2022-08-07T02:11:30.678Z,21.60
2022-08-07T02:14:40.357Z,21.57
2022-08-07T02:17:10.992Z,21.53
2022-08-07T02:20:04.768Z,21.50
2022-08-07T02:22:40.970Z,21.44
2022-08-07T02:25:13.974Z,21.41
2022-08-07T02:27:55.976Z,21.37
2022-08-07T02:30:25.865Z,21.34
2022-08-07T02:33:00.241Z,21.31
2022-08-07T02:36:26.803Z,21.31
2022-08-07T02:38:33.394Z,21.31
2022-08-07T02:41:04.580Z,21.31
2022-08-07T02:43:38.878Z,21.31
2022-08-07T02:46:11.106Z,21.32
2022-08-07T02:48:40.238Z,21.31
2022-08-07T02:51:42.735Z,21.31
2022-08-07T02:54:16.553Z,21.29
2022-08-07T02:56:47.671Z,21.27
2022-08-07T02:59:25.869Z,21.25
2022-08-07T03:02:02.306Z,21.25
2022-08-07T03:04:32.223Z,21.27
2022-08-07T03:07:07.341Z,21.26
2022-08-07T03:09:43.329Z,21.24
2022-08-07T03:12:22.464Z,21.20
2022-08-07T03:15:02.283Z,21.16
2022-08-07T03:17:53.911Z,21.15
2022-08-07T03:20:24.406Z,21.10
2022-08-07T03:22:55.306Z,21.07
2022-08-07T03:25:25.463Z,21.03
2022-08-07T03:28:08.848Z,21.00
2022-08-07T03:30:39.851Z,20.97
2022-08-07T03:33:11.171Z,20.95
2022-08-07T03:35:50.283Z,20.94
2022-08-07T03:38:21.059Z,20.92
2022-08-07T03:41:01.693Z,20.92
2022-08-07T03:43:33.253Z,20.93
2022-08-07T03:46:10.340Z,20.92
2022-08-07T03:48:45.561Z,20.92
2022-08-07T03:51:31.034Z,20.93
2022-08-07T03:54:36.096Z,20.95
2022-08-07T03:57:07.438Z,20.97
2022-08-07T03:59:37.471Z,21.00
2022-08-07T04:02:16.079Z,21.04
2022-08-07T04:04:45.791Z,21.08
2022-08-07T04:07:36.001Z,21.13
2022-08-07T04:10:15.426Z,21.20
2022-08-07T04:12:49.205Z,21.28
2022-08-07T04:15:19.444Z,21.34
2022-08-07T04:18:57.945Z,21.40
2022-08-07T04:20:54.374Z,21.44
2022-08-07T04:23:25.458Z,21.47
2022-08-07T04:26:13.995Z,21.52
2022-08-07T04:28:45.647Z,21.57
2022-08-07T04:31:20.037Z,21.61
2022-08-07T04:33:55.152Z,21.64
2022-08-07T04:36:26.245Z,21.66
2022-08-07T04:38:54.936Z,21.67
2022-08-07T04:41:23.209Z,21.67
2022-08-07T04:44:11.934Z,21.70
2022-08-07T04:47:04.980Z,21.72
2022-08-07T04:49:41.900Z,21.76
2022-08-07T04:52:27.990Z,21.79
2022-08-07T04:55:02.415Z,21.83
2022-08-07T04:58:11.571Z,21.86
2022-08-07T05:00:59.359Z,21.88
2022-08-07T05:04:06.911Z,21.89
2022-08-07T05:07:20.442Z,21.89
2022-08-07T05:09:55.049Z,21.90
2022-08-07T05:12:31.824Z,21.90
2022-08-07T05:15:23.313Z,21.92
2022-08-07T05:18:01.761Z,21.94
2022-08-07T05:20:47.240Z,21.98
2022-08-07T05:23:29.130Z,22.03
2022-08-07T05:26:13.420Z,22.08
2022-08-07T05:28:50.449Z,22.13
2022-08-07T05:31:24.074Z,22.18
2022-08-07T05:34:11.008Z,22.24
2022-08-07T05:36:43.866Z,22.30
2022-08-07T05:40:05.547Z,22.36
2022-08-07T05:42:14.291Z,22.41
2022-08-07T05:44:52.996Z,22.45
2022-08-07T05:47:38.285Z,22.47
2022-08-07T05:50:24.204Z,22.50
2022-08-07T05:52:52.384Z,22.53
2022-08-07T05:55:21.983Z,22.59
2022-08-07T05:57:53.012Z,22.65
2022-08-07T06:00:25.399Z,22.70
2022-08-07T06:03:00.737Z,22.76
2022-08-07T06:05:31.536Z,22.82
2022-08-07T06:08:29.424Z,22.89
2022-08-07T06:10:54.904Z,22.97
2022-08-07T06:14:10.664Z,23.04
2022-08-07T06:16:15.182Z,23.10
2022-08-07T06:18:51.822Z,23.17
2022-08-07T06:22:15.330Z,23.24
2022-08-07T06:24:52.512Z,23.31
2022-08-07T06:27:03.723Z,23.38
2022-08-07T06:29:34.275Z,23.45
2022-08-07T06:32:02.690Z,23.53
2022-08-07T06:34:33.325Z,23.60
2022-08-07T06:37:02.586Z,23.67
2022-08-07T06:40:12.973Z,23.74
2022-08-07T06:42:37.218Z,23.82
2022-08-07T06:45:37.927Z,23.91
2022-08-07T06:48:11.441Z,23.99
2022-08-07T06:50:47.826Z,24.06
2022-08-07T06:55:29.105Z,24.15
2022-08-07T06:56:15.111Z,24.24
2022-08-07T07:00:12.994Z,24.32
2022-08-07T07:01:43.894Z,24.41
2022-08-07T07:04:28.450Z,24.50
2022-08-07T07:07:10.681Z,24.58
2022-08-07T07:09:50.841Z,24.66
2022-08-07T07:12:48.413Z,24.74
2022-08-07T07:15:23.962Z,24.83
2022-08-07T07:18:48.163Z,24.92
2022-08-07T07:21:19.636Z,25.02
2022-08-07T07:24:06.626Z,25.09
2022-08-07T07:26:51.906Z,25.16
2022-08-07T07:29:56.711Z,25.24
2022-08-07T07:32:17.948Z,25.31
2022-08-07T07:34:49.456Z,25.37
2022-08-07T07:37:43.878Z,25.45
2022-08-07T07:40:15.565Z,25.52
2022-08-07T07:42:47.189Z,25.59
2022-08-07T07:46:36.559Z,25.66
2022-08-07T07:48:35.127Z,25.75
2022-08-07T07:51:08.603Z,25.82
2022-08-07T07:53:44.737Z,25.89
2022-08-07T07:56:30.585Z,25.95
2022-08-07T07:59:02.106Z,26.03
2022-08-07T08:02:02.299Z,26.12
2022-08-07T08:04:25.485Z,26.22
2022-08-07T08:06:55.392Z,26.32
2022-08-07T08:09:29.548Z,26.40
2022-08-07T08:12:03.845Z,26.49
2022-08-07T08:14:36.342Z,26.60
2022-08-07T08:17:55.272Z,26.69
2022-08-07T08:20:17.056Z,26.81
2022-08-07T08:23:12.062Z,26.93
2022-08-07T08:26:07.021Z,27.05
2022-08-07T08:28:44.735Z,27.15
2022-08-07T08:31:30.175Z,27.23
2022-08-07T08:34:12.443Z,27.31
2022-08-07T08:36:56.195Z,27.42
2022-08-07T08:39:39.350Z,27.55
2022-08-07T08:42:41.479Z,27.66
2022-08-07T08:45:58.524Z,27.77
2022-08-07T08:48:55.772Z,27.91
2022-08-07T08:52:13.391Z,28.05
2022-08-07T08:54:41.767Z,28.20
2022-08-07T08:57:27.190Z,28.30
2022-08-07T09:00:04.535Z,28.41
2022-08-07T09:02:38.816Z,28.53
2022-08-07T09:05:53.806Z,28.65
2022-08-07T09:08:55.575Z,28.80
2022-08-07T09:11:24.500Z,28.97
2022-08-07T09:14:27.675Z,29.11
2022-08-07T09:17:17.625Z,29.26
2022-08-07T09:20:30.720Z,29.41
2022-08-07T09:24:52.495Z,29.56
2022-08-07T09:26:17.196Z,29.67
2022-08-07T09:30:05.650Z,29.74
2022-08-07T09:32:01.318Z,29.76
2022-08-07T09:34:58.534Z,29.81
2022-08-07T09:38:12.297Z,29.79
2022-08-07T09:41:06.152Z,29.77
2022-08-07T09:44:06.170Z,29.79
2022-08-07T09:47:55.116Z,29.86
2022-08-07T09:50:18.641Z,29.98
2022-08-07T09:53:02.067Z,30.16
2022-08-07T09:56:04.393Z,30.35
2022-08-07T09:59:07.551Z,30.52
2022-08-07T10:02:05.070Z,30.70
2022-08-07T10:05:12.632Z,30.87
2022-08-07T10:07:52.424Z,31.02
2022-08-07T10:11:07.664Z,31.13
2022-08-07T10:14:00.979Z,31.25
2022-08-07T10:16:29.232Z,31.30
2022-08-07T10:19:11.158Z,31.29
2022-08-07T10:22:16.957Z,31.32
2022-08-07T10:25:04.825Z,31.44
2022-08-07T10:28:12.970Z,31.43
2022-08-07T10:30:59.632Z,31.36
2022-08-07T10:34:06.503Z,31.34
2022-08-07T10:37:16.059Z,31.41
2022-08-07T10:40:03.239Z,31.53
2022-08-07T10:42:42.873Z,31.65
2022-08-07T10:45:44.459Z,31.80
2022-08-07T10:48:34.755Z,31.95
2022-08-07T10:51:16.867Z,32.08
2022-08-07T10:54:41.723Z,32.26
2022-08-07T10:57:56.298Z,32.47
2022-08-07T11:00:36.732Z,32.65
2022-08-07T11:03:52.776Z,32.78
2022-08-07T11:06:35.885Z,32.88
2022-08-07T11:10:10.281Z,33.00
2022-08-07T11:12:32.273Z,33.14
2022-08-07T11:15:17.465Z,33.23
2022-08-07T11:17:53.081Z,33.32
2022-08-07T11:20:54.251Z,33.45
2022-08-07T11:23:38.388Z,33.61
2022-08-07T11:26:13.086Z,33.71
2022-08-07T11:28:53.490Z,33.76
2022-08-07T11:31:34.998Z,33.84
2022-08-07T11:34:16.538Z,33.92
2022-08-07T11:37:06.729Z,33.99
2022-08-07T11:40:00.006Z,34.06
2022-08-07T11:42:59.816Z,34.00
2022-08-07T11:45:35.960Z,33.87
2022-08-07T11:48:29.734Z,33.81
2022-08-07T11:51:41.955Z,33.76
2022-08-07T11:54:22.118Z,33.83
2022-08-07T11:57:03.512Z,33.93
2022-08-07T12:00:11.341Z,34.05
2022-08-07T12:03:01.243Z,34.21
2022-08-07T12:05:50.467Z,34.36
2022-08-07T12:08:31.709Z,34.55
2022-08-07T12:11:24.084Z,34.71
2022-08-07T12:14:11.715Z,34.83
2022-08-07T12:17:19.802Z,34.92
2022-08-07T12:20:09.493Z,35.03
2022-08-07T12:22:56.124Z,35.08
2022-08-07T12:26:02.953Z,34.97
2022-08-07T12:29:12.233Z,34.84
2022-08-07T12:32:04.095Z,34.80
2022-08-07T12:34:40.837Z,34.89
2022-08-07T12:37:17.027Z,35.00
2022-08-07T12:39:55.047Z,35.00
2022-08-07T12:42:28.623Z,34.98
2022-08-07T12:45:13.850Z,34.97
2022-08-07T12:47:56.415Z,34.98
2022-08-07T12:50:48.870Z,34.91
2022-08-07T12:53:19.021Z,34.79
2022-08-07T12:56:12.420Z,34.65
2022-08-07T12:58:46.766Z,34.44
2022-08-07T13:01:50.775Z,34.35
2022-08-07T13:05:06.431Z,34.42
2022-08-07T13:08:12.265Z,34.56
2022-08-07T13:11:16.822Z,34.72
2022-08-07T13:13:58.128Z,34.81
2022-08-07T13:16:53.519Z,34.79
2022-08-07T13:19:50.886Z,34.77
2022-08-07T13:22:40.850Z,34.67
2022-08-07T13:25:30.099Z,34.67
2022-08-07T13:28:12.934Z,34.77
2022-08-07T13:31:02.139Z,34.87
2022-08-07T13:34:32.138Z,34.85
2022-08-07T13:36:57.817Z,34.76
2022-08-07T13:40:34.291Z,34.74
2022-08-07T13:42:27.188Z,34.81
2022-08-07T13:46:06.135Z,34.84
2022-08-07T13:48:08.395Z,34.84
2022-08-07T13:51:00.019Z,34.86
2022-08-07T13:54:00.212Z,34.89
2022-08-07T13:56:35.655Z,34.87
2022-08-07T13:59:18.077Z,34.86
2022-08-07T14:02:03.754Z,34.90
2022-08-07T14:04:49.658Z,34.95
2022-08-07T14:07:23.097Z,34.96
2022-08-07T14:10:16.503Z,34.94
2022-08-07T14:12:54.075Z,34.90
2022-08-07T14:15:35.115Z,34.90
2022-08-07T14:18:30.443Z,34.90
2022-08-07T14:21:21.170Z,34.88
2022-08-07T14:24:06.098Z,34.84
2022-08-07T14:26:50.343Z,34.83
2022-08-07T14:30:02.925Z,34.87
2022-08-07T14:32:13.241Z,34.95
2022-08-07T14:34:46.480Z,35.04
2022-08-07T14:37:18.633Z,35.08
2022-08-07T14:40:16.469Z,35.05
2022-08-07T14:43:01.443Z,35.01
2022-08-07T14:48:34.596Z,34.83
2022-08-07T14:51:15.810Z,34.56
2022-08-07T14:54:05.555Z,34.22
2022-08-07T14:56:40.637Z,33.93
2022-08-07T15:02:33.062Z,33.41
2022-08-07T15:05:05.016Z,33.10
2022-08-07T15:07:51.939Z,32.82
2022-08-07T15:10:26.119Z,32.63
2022-08-07T15:13:00.266Z,32.49
2022-08-07T15:15:43.083Z,32.37
2022-08-07T15:18:34.838Z,32.26
2022-08-07T15:21:43.740Z,32.12
2022-08-07T15:25:16.380Z,31.89
2022-08-07T15:27:03.947Z,31.66
2022-08-07T15:30:06.467Z,31.48
2022-08-07T15:35:18.221Z,31.23
2022-08-07T15:38:30.179Z,31.10
2022-08-07T15:43:58.860Z,30.96
2022-08-07T15:46:37.639Z,30.95
2022-08-07T15:49:14.536Z,30.92
2022-08-07T15:54:40.591Z,30.86
2022-08-07T15:57:39.833Z,30.83
2022-08-07T16:00:06.713Z,30.81
2022-08-07T16:02:47.147Z,30.79
2022-08-07T16:05:19.796Z,30.78
2022-08-07T16:08:31.349Z,30.72
2022-08-07T16:10:49.864Z,30.59
2022-08-07T16:13:59.403Z,30.43
2022-08-07T16:16:47.736Z,30.29
2022-08-07T16:19:58.994Z,30.18
2022-08-07T16:22:55.071Z,30.05
2022-08-07T16:25:54.916Z,29.89
2022-08-07T16:30:06.016Z,29.76
2022-08-07T16:31:51.668Z,29.59
2022-08-07T16:35:00.018Z,29.47
2022-08-07T16:38:06.662Z,29.36
2022-08-07T16:41:02.086Z,29.21
2022-08-07T16:44:06.018Z,29.09
2022-08-07T16:47:16.044Z,29.03
2022-08-07T16:50:35.963Z,28.98
2022-08-07T16:53:57.161Z,28.94
2022-08-07T16:56:32.415Z,28.88
2022-08-07T16:59:45.995Z,28.86
2022-08-07T17:02:51.639Z,28.83
2022-08-07T17:06:18.815Z,28.82
2022-08-07T17:08:10.715Z,28.78
2022-08-07T17:10:54.815Z,28.71
2022-08-07T17:13:41.887Z,28.62
2022-08-07T17:16:29.384Z,28.53
2022-08-07T17:19:03.958Z,28.46
2022-08-07T17:21:52.306Z,28.39
2022-08-07T17:24:29.746Z,28.31
2022-08-07T17:26:58.633Z,28.22
2022-08-07T17:30:15.064Z,28.14
2022-08-07T17:32:57.716Z,28.05
2022-08-07T17:35:54.653Z,27.96
2022-08-07T17:38:46.592Z,27.88
2022-08-07T17:42:04.984Z,27.81
2022-08-07T17:44:35.083Z,27.73
2022-08-07T17:47:54.004Z,27.66
2022-08-07T17:50:35.563Z,27.58
2022-08-07T17:54:02.272Z,27.52
2022-08-07T17:56:42.138Z,27.42
2022-08-07T17:59:35.982Z,27.32
2022-08-07T18:02:23.268Z,27.22
2022-08-07T18:05:10.550Z,27.12
2022-08-07T18:08:16.438Z,26.99
2022-08-07T18:12:07.371Z,26.87
2022-08-07T18:14:16.646Z,26.76
2022-08-07T18:16:58.842Z,26.67
2022-08-07T18:21:03.564Z,26.59
2022-08-07T18:22:57.828Z,26.51
2022-08-07T18:25:39.359Z,26.44
2022-08-07T18:28:34.374Z,26.39
2022-08-07T18:31:40.445Z,26.34
2022-08-07T18:34:37.436Z,26.30
2022-08-07T18:38:57.834Z,26.27
2022-08-07T18:40:57.674Z,26.23
2022-08-07T18:44:03.064Z,26.20
2022-08-07T18:47:00.336Z,26.16
2022-08-07T18:50:19.275Z,26.12
2022-08-07T18:52:55.157Z,26.06
2022-08-07T18:55:57.295Z,26.00
2022-08-07T18:58:35.922Z,25.92
2022-08-07T19:02:17.502Z,25.85
2022-08-07T19:04:09.536Z,25.80
2022-08-07T19:06:51.505Z,25.76
2022-08-07T19:09:56.811Z,25.72
2022-08-07T19:12:37.052Z,25.68
2022-08-07T19:16:04.729Z,25.64
2022-08-07T19:18:44.802Z,25.58
2022-08-07T19:21:48.018Z,25.52
2022-08-07T19:24:30.430Z,25.46
2022-08-07T19:28:58.136Z,25.40
2022-08-07T19:31:06.290Z,25.35
2022-08-07T19:32:50.872Z,25.30
2022-08-07T19:35:26.825Z,25.26
2022-08-07T19:38:00.075Z,25.21
2022-08-07T19:40:34.794Z,25.18
2022-08-07T19:43:43.202Z,25.13
2022-08-07T19:46:10.778Z,25.04
2022-08-07T19:48:54.099Z,24.97
2022-08-07T19:51:51.901Z,24.91
2022-08-07T19:54:31.588Z,24.86
2022-08-07T19:58:02.927Z,24.80
2022-08-07T20:00:10.413Z,24.75
2022-08-07T20:02:52.164Z,24.71
2022-08-07T20:05:28.134Z,24.66
2022-08-07T20:08:01.044Z,24.61
2022-08-07T20:10:35.951Z,24.56
2022-08-07T20:13:32.025Z,24.51
2022-08-07T20:16:04.930Z,24.45
2022-08-07T20:18:34.768Z,24.40
2022-08-07T20:21:14.790Z,24.36
2022-08-07T20:23:57.964Z,24.32
2022-08-07T20:26:45.156Z,24.28
2022-08-07T20:29:49.464Z,24.25
2022-08-07T20:32:22.806Z,24.21
2022-08-07T20:35:01.217Z,24.18
2022-08-07T20:37:58.264Z,24.15
2022-08-07T20:40:34.312Z,24.11
2022-08-07T20:43:14.865Z,24.08
2022-08-07T20:46:25.745Z,24.05
2022-08-07T20:48:57.957Z,24.02
2022-08-07T20:51:36.065Z,23.99
2022-08-07T20:54:11.981Z,23.96
2022-08-07T20:56:50.066Z,23.93
2022-08-07T21:00:05.615Z,23.89
2022-08-07T21:02:55.248Z,23.85
2022-08-07T21:05:52.759Z,23.83
2022-08-07T21:08:38.101Z,23.82
2022-08-07T21:11:18.317Z,23.80
2022-08-07T21:14:16.426Z,23.78
2022-08-07T21:16:57.058Z,23.74
2022-08-07T21:19:51.627Z,23.70
2022-08-07T21:22:30.786Z,23.65
2022-08-07T21:25:19.454Z,23.59
2022-08-07T21:28:06.371Z,23.53
2022-08-07T21:30:43.221Z,23.50
2022-08-07T21:33:20.314Z,23.48
2022-08-07T21:36:31.089Z,23.45
2022-08-07T21:39:45.091Z,23.42
2022-08-07T21:42:10.688Z,23.41
2022-08-07T21:45:08.385Z,23.40
2022-08-07T21:48:27.589Z,23.39
2022-08-07T21:51:25.847Z,23.39
2022-08-07T21:54:19.328Z,23.39
2022-08-07T21:57:31.514Z,23.38
2022-08-07T22:00:24.884Z,23.37
2022-08-07T22:03:17.135Z,23.37
2022-08-07T22:05:56.143Z,23.39
2022-08-07T22:08:42.976Z,23.41
2022-08-07T22:11:17.655Z,23.44
2022-08-07T22:13:55.574Z,23.48
2022-08-07T22:16:42.220Z,23.51
2022-08-07T22:20:07.003Z,23.52
2022-08-07T22:22:45.982Z,23.52
2022-08-07T22:25:40.032Z,23.51
2022-08-07T22:28:31.146Z,23.49
2022-08-07T22:31:56.150Z,23.45
2022-08-07T22:34:31.721Z,23.40
2022-08-07T22:37:12.536Z,23.38
2022-08-07T22:40:05.054Z,23.36
2022-08-07T22:42:36.668Z,23.34
2022-08-07T22:45:11.048Z,23.33
2022-08-07T22:47:58.329Z,23.32
2022-08-07T22:50:43.580Z,23.32
2022-08-07T22:54:07.582Z,23.32
2022-08-07T22:57:26.030Z,23.30
2022-08-07T23:00:03.309Z,23.27
2022-08-07T23:02:46.878Z,23.26
2022-08-07T23:06:09.067Z,23.25
2022-08-07T23:08:31.882Z,23.23
2022-08-07T23:11:15.161Z,23.23
2022-08-07T23:14:10.541Z,23.22
2022-08-07T23:17:20.181Z,23.21
2022-08-07T23:20:51.280Z,23.19
2022-08-07T23:24:06.992Z,23.17
2022-08-07T23:26:30.013Z,23.13
2022-08-07T23:29:43.572Z,23.10
2022-08-07T23:34:21.201Z,23.07
2022-08-07T23:35:23.713Z,23.05
2022-08-07T23:38:05.729Z,23.04
2022-08-07T23:40:42.911Z,23.02
2022-08-07T23:43:43.537Z,23.00
2022-08-07T23:46:43.017Z,22.99
2022-08-07T23:49:50.441Z,22.98
2022-08-07T23:53:00.637Z,22.96
2022-08-07T23:55:52.618Z,22.96
2022-08-07T23:58:31.983Z,22.96
